sensor_id;sensor_type;location;lat;lon;timestamp;temperature;humidity
1988;DHT22;12775;46.994;15.498;2023-04-28T00:01:44;13.30;67.80
1988;DHT22;12775;46.994;15.498;2023-04-28T00:04:11;13.40;67.80
1988;DHT22;12775;46.994;15.498;2023-04-28T00:06:38;13.30;69.00
1988;DHT22;12775;46.994;15.498;2023-04-28T00:09:06;13.40;70.20
1988;DHT22;12775;46.994;15.498;2023-04-28T00:11:33;13.40;70.50
1988;DHT22;12775;46.994;15.498;2023-04-28T00:14:01;13.40;70.50
1988;DHT22;12775;46.994;15.498;2023-04-28T00:16:29;13.40;70.80
1988;DHT22;12775;46.994;15.498;2023-04-28T00:18:56;13.40;70.40
1988;DHT22;12775;46.994;15.498;2023-04-28T00:21:23;13.40;70.70
1988;DHT22;12775;46.994;15.498;2023-04-28T00:23:51;13.40;69.80
1988;DHT22;12775;46.994;15.498;2023-04-28T00:26:18;13.40;69.90
1988;DHT22;12775;46.994;15.498;2023-04-28T00:28:46;13.30;69.20
1988;DHT22;12775;46.994;15.498;2023-04-28T00:31:13;13.30;69.10
1988;DHT22;12775;46.994;15.498;2023-04-28T00:33:41;13.30;69.30
1988;DHT22;12775;46.994;15.498;2023-04-28T00:36:08;13.30;70.00
1988;DHT22;12775;46.994;15.498;2023-04-28T00:38:36;13.20;70.80
1988;DHT22;12775;46.994;15.498;2023-04-28T00:41:03;13.10;70.20
1988;DHT22;12775;46.994;15.498;2023-04-28T00:43:30;13.10;70.10
1988;DHT22;12775;46.994;15.498;2023-04-28T00:45:58;13.00;70.50
1988;DHT22;12775;46.994;15.498;2023-04-28T00:48:25;13.00;70.30
1988;DHT22;12775;46.994;15.498;2023-04-28T00:50:52;12.90;70.90
1988;DHT22;12775;46.994;15.498;2023-04-28T00:53:20;12.80;70.20
1988;DHT22;12775;46.994;15.498;2023-04-28T00:55:49;12.80;69.90
1988;DHT22;12775;46.994;15.498;2023-04-28T00:58:15;12.70;70.50
1988;DHT22;12775;46.994;15.498;2023-04-28T01:00:43;12.60;70.40
1988;DHT22;12775;46.994;15.498;2023-04-28T01:03:10;12.60;70.20
1988;DHT22;12775;46.994;15.498;2023-04-28T01:05:38;12.50;70.10
1988;DHT22;12775;46.994;15.498;2023-04-28T01:08:07;12.40;69.80
1988;DHT22;12775;46.994;15.498;2023-04-28T01:10:34;12.30;70.40
1988;DHT22;12775;46.994;15.498;2023-04-28T01:13:01;12.20;70.40
1988;DHT22;12775;46.994;15.498;2023-04-28T01:15:30;12.20;70.20
1988;DHT22;12775;46.994;15.498;2023-04-28T01:17:57;12.10;70.40
1988;DHT22;12775;46.994;15.498;2023-04-28T01:20:25;12.00;70.30
1988;DHT22;12775;46.994;15.498;2023-04-28T01:22:52;12.00;69.80
1988;DHT22;12775;46.994;15.498;2023-04-28T01:25:19;11.90;70.10
1988;DHT22;12775;46.994;15.498;2023-04-28T01:27:47;11.90;70.20
1988;DHT22;12775;46.994;15.498;2023-04-28T01:30:14;11.90;70.50
1988;DHT22;12775;46.994;15.498;2023-04-28T01:32:41;11.80;70.50
1988;DHT22;12775;46.994;15.498;2023-04-28T01:35:09;11.80;71.10
1988;DHT22;12775;46.994;15.498;2023-04-28T01:37:36;11.80;70.60
1988;DHT22;12775;46.994;15.498;2023-04-28T01:40:04;11.70;70.40
1988;DHT22;12775;46.994;15.498;2023-04-28T01:42:32;11.70;71.70
1988;DHT22;12775;46.994;15.498;2023-04-28T01:44:59;11.60;71.50
1988;DHT22;12775;46.994;15.498;2023-04-28T01:47:27;11.60;72.00
1988;DHT22;12775;46.994;15.498;2023-04-28T01:49:54;11.50;73.70
1988;DHT22;12775;46.994;15.498;2023-04-28T01:52:22;11.40;74.20
1988;DHT22;12775;46.994;15.498;2023-04-28T01:54:49;11.40;74.40
1988;DHT22;12775;46.994;15.498;2023-04-28T01:57:16;11.30;74.70
1988;DHT22;12775;46.994;15.498;2023-04-28T01:59:42;11.30;73.80
1988;DHT22;12775;46.994;15.498;2023-04-28T02:02:10;11.20;73.10
1988;DHT22;12775;46.994;15.498;2023-04-28T02:04:38;11.20;73.00
1988;DHT22;12775;46.994;15.498;2023-04-28T02:07:05;11.20;72.90
1988;DHT22;12775;46.994;15.498;2023-04-28T02:09:33;11.10;74.00
1988;DHT22;12775;46.994;15.498;2023-04-28T02:12:00;11.10;73.50
1988;DHT22;12775;46.994;15.498;2023-04-28T02:14:28;11.10;75.40
1988;DHT22;12775;46.994;15.498;2023-04-28T02:16:55;11.00;75.20
1988;DHT22;12775;46.994;15.498;2023-04-28T02:19:24;10.90;77.20
1988;DHT22;12775;46.994;15.498;2023-04-28T02:21:51;10.80;77.20
1988;DHT22;12775;46.994;15.498;2023-04-28T02:24:18;10.80;76.90
1988;DHT22;12775;46.994;15.498;2023-04-28T02:26:46;10.70;76.10
1988;DHT22;12775;46.994;15.498;2023-04-28T02:29:12;10.70;76.10
1988;DHT22;12775;46.994;15.498;2023-04-28T02:31:40;10.60;76.50
1988;DHT22;12775;46.994;15.498;2023-04-28T02:34:07;10.60;76.80
1988;DHT22;12775;46.994;15.498;2023-04-28T02:36:34;10.60;77.40
1988;DHT22;12775;46.994;15.498;2023-04-28T02:39:02;10.50;77.50
1988;DHT22;12775;46.994;15.498;2023-04-28T02:41:29;10.50;77.90
1988;DHT22;12775;46.994;15.498;2023-04-28T02:43:57;10.50;76.90
1988;DHT22;12775;46.994;15.498;2023-04-28T02:46:24;10.50;77.10
1988;DHT22;12775;46.994;15.498;2023-04-28T02:48:51;10.50;78.20
1988;DHT22;12775;46.994;15.498;2023-04-28T02:51:19;10.50;79.20
1988;DHT22;12775;46.994;15.498;2023-04-28T02:53:46;10.50;78.20
1988;DHT22;12775;46.994;15.498;2023-04-28T02:56:14;10.50;78.20
1988;DHT22;12775;46.994;15.498;2023-04-28T02:58:41;10.40;77.20
1988;DHT22;12775;46.994;15.498;2023-04-28T03:01:08;10.40;76.90
1988;DHT22;12775;46.994;15.498;2023-04-28T03:03:36;10.40;77.40
1988;DHT22;12775;46.994;15.498;2023-04-28T03:06:04;10.40;79.10
1988;DHT22;12775;46.994;15.498;2023-04-28T03:08:31;10.40;78.50
1988;DHT22;12775;46.994;15.498;2023-04-28T03:10:58;10.30;79.00
1988;DHT22;12775;46.994;15.498;2023-04-28T03:13:26;10.30;80.00
1988;DHT22;12775;46.994;15.498;2023-04-28T03:15:54;10.30;80.40
1988;DHT22;12775;46.994;15.498;2023-04-28T03:18:22;10.20;80.80
1988;DHT22;12775;46.994;15.498;2023-04-28T03:20:49;10.10;80.40
1988;DHT22;12775;46.994;15.498;2023-04-28T03:23:16;10.10;80.30
1988;DHT22;12775;46.994;15.498;2023-04-28T03:25:44;10.10;79.90
1988;DHT22;12775;46.994;15.498;2023-04-28T03:28:11;10.00;79.80
1988;DHT22;12775;46.994;15.498;2023-04-28T03:30:38;10.00;80.00
1988;DHT22;12775;46.994;15.498;2023-04-28T03:33:06;9.90;81.60
1988;DHT22;12775;46.994;15.498;2023-04-28T03:35:33;9.90;82.80
1988;DHT22;12775;46.994;15.498;2023-04-28T03:38:01;9.80;83.10
1988;DHT22;12775;46.994;15.498;2023-04-28T03:40:28;9.70;83.20
1988;DHT22;12775;46.994;15.498;2023-04-28T03:42:55;9.70;83.60
1988;DHT22;12775;46.994;15.498;2023-04-28T03:45:23;9.70;82.80
1988;DHT22;12775;46.994;15.498;2023-04-28T03:47:50;9.80;82.50
1988;DHT22;12775;46.994;15.498;2023-04-28T03:50:17;9.80;82.10
1988;DHT22;12775;46.994;15.498;2023-04-28T03:52:45;9.80;81.80
1988;DHT22;12775;46.994;15.498;2023-04-28T03:55:12;9.80;81.80
1988;DHT22;12775;46.994;15.498;2023-04-28T03:57:39;9.90;81.80
1988;DHT22;12775;46.994;15.498;2023-04-28T04:00:09;9.90;81.10
1988;DHT22;12775;46.994;15.498;2023-04-28T04:02:35;9.90;81.10
1988;DHT22;12775;46.994;15.498;2023-04-28T04:05:02;9.90;81.40
1988;DHT22;12775;46.994;15.498;2023-04-28T04:07:29;9.90;81.70
1988;DHT22;12775;46.994;15.498;2023-04-28T04:09:57;9.90;82.00
1988;DHT22;12775;46.994;15.498;2023-04-28T04:12:24;9.90;83.30
1988;DHT22;12775;46.994;15.498;2023-04-28T04:14:52;9.90;82.20
1988;DHT22;12775;46.994;15.498;2023-04-28T04:17:20;9.80;82.70
1988;DHT22;12775;46.994;15.498;2023-04-28T04:19:48;9.90;83.40
1988;DHT22;12775;46.994;15.498;2023-04-28T04:22:15;9.90;83.80
1988;DHT22;12775;46.994;15.498;2023-04-28T04:24:43;9.90;83.70
1988;DHT22;12775;46.994;15.498;2023-04-28T04:27:10;9.80;83.80
1988;DHT22;12775;46.994;15.498;2023-04-28T04:29:37;9.90;85.50
1988;DHT22;12775;46.994;15.498;2023-04-28T04:32:05;9.90;85.90
1988;DHT22;12775;46.994;15.498;2023-04-28T04:34:32;9.90;85.90
1988;DHT22;12775;46.994;15.498;2023-04-28T04:37:00;9.90;86.00
1988;DHT22;12775;46.994;15.498;2023-04-28T04:39:27;9.90;86.30
1988;DHT22;12775;46.994;15.498;2023-04-28T04:41:55;9.90;86.50
1988;DHT22;12775;46.994;15.498;2023-04-28T04:44:23;10.00;88.40
1988;DHT22;12775;46.994;15.498;2023-04-28T04:46:49;10.00;88.40
1988;DHT22;12775;46.994;15.498;2023-04-28T04:49:17;10.00;88.10
1988;DHT22;12775;46.994;15.498;2023-04-28T04:51:44;10.00;88.20
1988;DHT22;12775;46.994;15.498;2023-04-28T04:54:12;10.00;87.80
1988;DHT22;12775;46.994;15.498;2023-04-28T04:56:40;10.10;87.40
1988;DHT22;12775;46.994;15.498;2023-04-28T04:59:08;10.10;88.30
1988;DHT22;12775;46.994;15.498;2023-04-28T05:01:35;10.20;87.30
1988;DHT22;12775;46.994;15.498;2023-04-28T05:04:03;10.20;87.20
1988;DHT22;12775;46.994;15.498;2023-04-28T05:06:30;10.20;89.70
1988;DHT22;12775;46.994;15.498;2023-04-28T05:08:59;10.20;90.40
1988;DHT22;12775;46.994;15.498;2023-04-28T05:11:26;10.30;90.50
1988;DHT22;12775;46.994;15.498;2023-04-28T05:13:53;10.30;90.80
1988;DHT22;12775;46.994;15.498;2023-04-28T05:16:22;10.40;91.30
1988;DHT22;12775;46.994;15.498;2023-04-28T05:18:49;10.40;91.30
1988;DHT22;12775;46.994;15.498;2023-04-28T05:21:16;10.50;91.70
1988;DHT22;12775;46.994;15.498;2023-04-28T05:23:44;10.50;92.60
1988;DHT22;12775;46.994;15.498;2023-04-28T05:26:11;10.60;92.20
1988;DHT22;12775;46.994;15.498;2023-04-28T05:28:39;10.60;92.10
1988;DHT22;12775;46.994;15.498;2023-04-28T05:31:07;10.60;91.80
1988;DHT22;12775;46.994;15.498;2023-04-28T05:33:35;10.70;92.30
1988;DHT22;12775;46.994;15.498;2023-04-28T05:36:03;10.70;92.10
1988;DHT22;12775;46.994;15.498;2023-04-28T05:38:30;10.80;90.80
1988;DHT22;12775;46.994;15.498;2023-04-28T05:40:57;10.80;92.00
1988;DHT22;12775;46.994;15.498;2023-04-28T05:43:25;10.90;92.50
1988;DHT22;12775;46.994;15.498;2023-04-28T05:45:52;10.90;93.10
1988;DHT22;12775;46.994;15.498;2023-04-28T05:48:19;11.10;94.30
1988;DHT22;12775;46.994;15.498;2023-04-28T05:50:47;11.20;94.30
1988;DHT22;12775;46.994;15.498;2023-04-28T05:53:14;11.40;94.10
1988;DHT22;12775;46.994;15.498;2023-04-28T05:55:43;11.60;93.80
1988;DHT22;12775;46.994;15.498;2023-04-28T05:58:10;11.50;93.70
1988;DHT22;12775;46.994;15.498;2023-04-28T06:00:36;11.70;93.60
1988;DHT22;12775;46.994;15.498;2023-04-28T06:03:04;11.90;92.40
1988;DHT22;12775;46.994;15.498;2023-04-28T06:05:32;12.00;92.50
1988;DHT22;12775;46.994;15.498;2023-04-28T06:07:59;12.00;92.50
1988;DHT22;12775;46.994;15.498;2023-04-28T06:10:26;12.10;92.00
1988;DHT22;12775;46.994;15.498;2023-04-28T06:12:54;12.20;92.00
1988;DHT22;12775;46.994;15.498;2023-04-28T06:15:22;12.30;91.90
1988;DHT22;12775;46.994;15.498;2023-04-28T06:17:49;12.50;91.70
1988;DHT22;12775;46.994;15.498;2023-04-28T06:20:16;12.60;91.80
1988;DHT22;12775;46.994;15.498;2023-04-28T06:22:44;12.70;91.10
1988;DHT22;12775;46.994;15.498;2023-04-28T06:25:11;12.80;90.70
1988;DHT22;12775;46.994;15.498;2023-04-28T06:27:38;12.90;90.60
1988;DHT22;12775;46.994;15.498;2023-04-28T06:30:07;13.00;90.60
1988;DHT22;12775;46.994;15.498;2023-04-28T06:32:34;13.10;90.40
1988;DHT22;12775;46.994;15.498;2023-04-28T06:35:02;13.20;90.80
1988;DHT22;12775;46.994;15.498;2023-04-28T06:37:29;13.30;90.40
1988;DHT22;12775;46.994;15.498;2023-04-28T06:39:56;13.30;90.00
1988;DHT22;12775;46.994;15.498;2023-04-28T06:42:24;13.40;90.50
1988;DHT22;12775;46.994;15.498;2023-04-28T06:44:52;13.40;89.10
1988;DHT22;12775;46.994;15.498;2023-04-28T06:47:19;13.40;90.30
1988;DHT22;12775;46.994;15.498;2023-04-28T06:49:46;13.40;90.30
1988;DHT22;12775;46.994;15.498;2023-04-28T06:52:13;13.60;91.00
1988;DHT22;12775;46.994;15.498;2023-04-28T06:54:41;13.70;91.00
1988;DHT22;12775;46.994;15.498;2023-04-28T06:57:08;13.90;87.30
1988;DHT22;12775;46.994;15.498;2023-04-28T06:59:36;14.00;90.40
1988;DHT22;12775;46.994;15.498;2023-04-28T07:02:02;14.00;90.40
1988;DHT22;12775;46.994;15.498;2023-04-28T07:04:30;14.10;86.30
1988;DHT22;12775;46.994;15.498;2023-04-28T07:06:57;14.20;89.30
1988;DHT22;12775;46.994;15.498;2023-04-28T07:09:25;14.30;90.70
1988;DHT22;12775;46.994;15.498;2023-04-28T07:11:53;14.50;90.70
1988;DHT22;12775;46.994;15.498;2023-04-28T07:14:20;14.60;90.00
1988;DHT22;12775;46.994;15.498;2023-04-28T07:16:47;14.70;87.80
1988;DHT22;12775;46.994;15.498;2023-04-28T07:19:15;14.80;85.60
1988;DHT22;12775;46.994;15.498;2023-04-28T07:21:42;14.90;88.20
1988;DHT22;12775;46.994;15.498;2023-04-28T07:24:09;15.10;88.90
1988;DHT22;12775;46.994;15.498;2023-04-28T07:26:37;15.30;84.30
1988;DHT22;12775;46.994;15.498;2023-04-28T07:29:04;15.30;79.40
1988;DHT22;12775;46.994;15.498;2023-04-28T07:31:31;15.50;82.40
1988;DHT22;12775;46.994;15.498;2023-04-28T07:33:59;15.60;84.30
1988;DHT22;12775;46.994;15.498;2023-04-28T07:36:26;15.40;73.30
1988;DHT22;12775;46.994;15.498;2023-04-28T07:38:54;15.40;72.10
1988;DHT22;12775;46.994;15.498;2023-04-28T07:41:21;15.30;73.20
1988;DHT22;12775;46.994;15.498;2023-04-28T07:43:48;15.40;72.30
1988;DHT22;12775;46.994;15.498;2023-04-28T07:46:16;15.50;73.20
1988;DHT22;12775;46.994;15.498;2023-04-28T07:48:42;15.50;73.30
1988;DHT22;12775;46.994;15.498;2023-04-28T07:51:10;15.50;74.10
1988;DHT22;12775;46.994;15.498;2023-04-28T07:53:37;15.70;72.90
1988;DHT22;12775;46.994;15.498;2023-04-28T07:56:05;15.70;70.70
1988;DHT22;12775;46.994;15.498;2023-04-28T07:58:32;15.70;70.40
1988;DHT22;12775;46.994;15.498;2023-04-28T08:00:59;15.70;71.80
1988;DHT22;12775;46.994;15.498;2023-04-28T08:03:27;15.80;70.90
1988;DHT22;12775;46.994;15.498;2023-04-28T08:05:54;15.70;70.70
1988;DHT22;12775;46.994;15.498;2023-04-28T08:08:22;15.80;70.20
1988;DHT22;12775;46.994;15.498;2023-04-28T08:10:49;15.80;71.80
1988;DHT22;12775;46.994;15.498;2023-04-28T08:13:16;15.80;71.90
1988;DHT22;12775;46.994;15.498;2023-04-28T08:15:44;15.80;70.70
1988;DHT22;12775;46.994;15.498;2023-04-28T08:18:11;15.90;73.10
1988;DHT22;12775;46.994;15.498;2023-04-28T08:20:38;15.90;79.40
1988;DHT22;12775;46.994;15.498;2023-04-28T08:23:07;15.90;80.10
1988;DHT22;12775;46.994;15.498;2023-04-28T08:25:33;16.20;79.70
1988;DHT22;12775;46.994;15.498;2023-04-28T08:28:01;16.40;80.90
1988;DHT22;12775;46.994;15.498;2023-04-28T08:30:28;16.40;81.40
1988;DHT22;12775;46.994;15.498;2023-04-28T08:32:56;16.60;77.40
1988;DHT22;12775;46.994;15.498;2023-04-28T08:35:23;16.70;77.90
1988;DHT22;12775;46.994;15.498;2023-04-28T08:37:51;16.70;79.50
1988;DHT22;12775;46.994;15.498;2023-04-28T08:40:17;16.70;79.50
1988;DHT22;12775;46.994;15.498;2023-04-28T08:42:44;17.00;79.00
1988;DHT22;12775;46.994;15.498;2023-04-28T08:45:12;17.00;77.60
1988;DHT22;12775;46.994;15.498;2023-04-28T08:47:40;17.10;78.50
1988;DHT22;12775;46.994;15.498;2023-04-28T08:50:08;17.10;75.80
1988;DHT22;12775;46.994;15.498;2023-04-28T08:52:35;17.20;76.90
1988;DHT22;12775;46.994;15.498;2023-04-28T08:55:05;17.20;75.00
1988;DHT22;12775;46.994;15.498;2023-04-28T08:57:34;17.30;75.80
1988;DHT22;12775;46.994;15.498;2023-04-28T08:59:59;17.30;75.70
1988;DHT22;12775;46.994;15.498;2023-04-28T09:02:26;17.30;75.70
1988;DHT22;12775;46.994;15.498;2023-04-28T09:04:53;17.30;75.50
1988;DHT22;12775;46.994;15.498;2023-04-28T09:07:21;17.30;75.20
1988;DHT22;12775;46.994;15.498;2023-04-28T09:09:48;17.40;76.40
1988;DHT22;12775;46.994;15.498;2023-04-28T09:12:15;17.40;77.00
1988;DHT22;12775;46.994;15.498;2023-04-28T09:14:43;17.50;74.70
1988;DHT22;12775;46.994;15.498;2023-04-28T09:17:11;17.50;76.10
1988;DHT22;12775;46.994;15.498;2023-04-28T09:19:39;17.60;76.90
1988;DHT22;12775;46.994;15.498;2023-04-28T09:22:05;17.50;76.80
1988;DHT22;12775;46.994;15.498;2023-04-28T09:24:32;17.60;76.60
1988;DHT22;12775;46.994;15.498;2023-04-28T09:26:59;17.70;70.90
1988;DHT22;12775;46.994;15.498;2023-04-28T09:29:25;17.70;70.80
1988;DHT22;12775;46.994;15.498;2023-04-28T09:31:52;17.70;76.20
1988;DHT22;12775;46.994;15.498;2023-04-28T09:34:20;17.70;75.90
1988;DHT22;12775;46.994;15.498;2023-04-28T09:36:47;17.70;71.40
1988;DHT22;12775;46.994;15.498;2023-04-28T09:39:26;17.80;72.50
1988;DHT22;12775;46.994;15.498;2023-04-28T09:41:42;17.70;77.20
1988;DHT22;12775;46.994;15.498;2023-04-28T09:44:16;17.70;77.20
1988;DHT22;12775;46.994;15.498;2023-04-28T09:46:42;17.80;78.50
1988;DHT22;12775;46.994;15.498;2023-04-28T09:49:10;17.90;75.10
1988;DHT22;12775;46.994;15.498;2023-04-28T09:51:37;17.90;74.80
1988;DHT22;12775;46.994;15.498;2023-04-28T09:54:03;17.90;74.70
1988;DHT22;12775;46.994;15.498;2023-04-28T09:56:30;18.00;69.40
1988;DHT22;12775;46.994;15.498;2023-04-28T09:58:58;18.10;74.20
1988;DHT22;12775;46.994;15.498;2023-04-28T10:01:27;18.20;77.30
1988;DHT22;12775;46.994;15.498;2023-04-28T10:03:54;18.20;75.80
1988;DHT22;12775;46.994;15.498;2023-04-28T10:06:21;18.30;73.90
1988;DHT22;12775;46.994;15.498;2023-04-28T10:08:49;18.30;70.40
1988;DHT22;12775;46.994;15.498;2023-04-28T10:11:16;18.30;70.30
1988;DHT22;12775;46.994;15.498;2023-04-28T10:13:42;18.50;72.90
1988;DHT22;12775;46.994;15.498;2023-04-28T10:16:10;18.50;69.90
1988;DHT22;12775;46.994;15.498;2023-04-28T10:18:36;18.60;68.20
1988;DHT22;12775;46.994;15.498;2023-04-28T10:21:04;18.50;65.70
1988;DHT22;12775;46.994;15.498;2023-04-28T10:24:08;18.40;65.50
1988;DHT22;12775;46.994;15.498;2023-04-28T10:29:08;18.40;67.30
1988;DHT22;12775;46.994;15.498;2023-04-28T10:31:35;18.40;67.40
1988;DHT22;12775;46.994;15.498;2023-04-28T10:34:23;18.40;68.30
1988;DHT22;12775;46.994;15.498;2023-04-28T10:36:49;18.40;68.30
1988;DHT22;12775;46.994;15.498;2023-04-28T10:39:16;18.50;73.40
1988;DHT22;12775;46.994;15.498;2023-04-28T10:41:46;18.50;73.40
1988;DHT22;12775;46.994;15.498;2023-04-28T10:47:03;18.70;67.50
1988;DHT22;12775;46.994;15.498;2023-04-28T10:55:29;19.00;68.20
1988;DHT22;12775;46.994;15.498;2023-04-28T10:57:38;18.90;68.00
1988;DHT22;12775;46.994;15.498;2023-04-28T11:02:39;18.80;69.70
1988;DHT22;12775;46.994;15.498;2023-04-28T11:05:09;19.00;70.20
1988;DHT22;12775;46.994;15.498;2023-04-28T11:07:36;19.00;70.30
1988;DHT22;12775;46.994;15.498;2023-04-28T11:10:04;19.30;75.70
1988;DHT22;12775;46.994;15.498;2023-04-28T11:12:32;19.60;75.60
1988;DHT22;12775;46.994;15.498;2023-04-28T11:15:09;19.70;74.40
1988;DHT22;12775;46.994;15.498;2023-04-28T11:17:39;19.90;72.20
1988;DHT22;12775;46.994;15.498;2023-04-28T11:20:06;19.80;72.10
1988;DHT22;12775;46.994;15.498;2023-04-28T11:22:33;20.10;72.90
1988;DHT22;12775;46.994;15.498;2023-04-28T11:25:00;20.10;72.80
1988;DHT22;12775;46.994;15.498;2023-04-28T11:27:28;20.10;69.80
1988;DHT22;12775;46.994;15.498;2023-04-28T11:29:54;20.40;73.10
1988;DHT22;12775;46.994;15.498;2023-04-28T11:32:27;20.50;72.60
1988;DHT22;12775;46.994;15.498;2023-04-28T11:34:53;20.70;75.10
1988;DHT22;12775;46.994;15.498;2023-04-28T11:37:21;20.80;74.10
1988;DHT22;12775;46.994;15.498;2023-04-28T11:39:48;20.80;73.00
1988;DHT22;12775;46.994;15.498;2023-04-28T11:42:15;21.10;73.20
1988;DHT22;12775;46.994;15.498;2023-04-28T11:44:48;21.00;73.10
1988;DHT22;12775;46.994;15.498;2023-04-28T11:47:09;21.20;70.50
1988;DHT22;12775;46.994;15.498;2023-04-28T11:49:43;21.40;70.90
1988;DHT22;12775;46.994;15.498;2023-04-28T11:52:09;21.30;70.90
1988;DHT22;12775;46.994;15.498;2023-04-28T11:54:36;21.40;69.50
1988;DHT22;12775;46.994;15.498;2023-04-28T11:57:02;21.40;69.50
1988;DHT22;12775;46.994;15.498;2023-04-28T11:59:31;21.50;66.80
1988;DHT22;12775;46.994;15.498;2023-04-28T12:01:58;21.60;66.90
1988;DHT22;12775;46.994;15.498;2023-04-28T12:04:29;21.50;61.70
1988;DHT22;12775;46.994;15.498;2023-04-28T12:06:59;21.60;67.60
1988;DHT22;12775;46.994;15.498;2023-04-28T12:09:26;21.70;66.50
1988;DHT22;12775;46.994;15.498;2023-04-28T12:11:54;21.80;69.00
1988;DHT22;12775;46.994;15.498;2023-04-28T12:14:21;21.50;63.90
1988;DHT22;12775;46.994;15.498;2023-04-28T12:16:48;21.60;69.40
1988;DHT22;12775;46.994;15.498;2023-04-28T12:19:16;21.70;66.30
1988;DHT22;12775;46.994;15.498;2023-04-28T12:21:43;21.80;71.90
1988;DHT22;12775;46.994;15.498;2023-04-28T12:24:16;21.90;72.30
1988;DHT22;12775;46.994;15.498;2023-04-28T12:26:42;22.00;72.60
1988;DHT22;12775;46.994;15.498;2023-04-28T12:29:33;22.00;72.30
1988;DHT22;12775;46.994;15.498;2023-04-28T12:31:52;22.10;71.50
1988;DHT22;12775;46.994;15.498;2023-04-28T12:34:19;22.10;70.90
1988;DHT22;12775;46.994;15.498;2023-04-28T12:36:46;22.00;70.80
1988;DHT22;12775;46.994;15.498;2023-04-28T12:39:13;22.00;69.90
1988;DHT22;12775;46.994;15.498;2023-04-28T12:41:39;22.10;69.20
1988;DHT22;12775;46.994;15.498;2023-04-28T12:44:06;22.20;70.10
1988;DHT22;12775;46.994;15.498;2023-04-28T12:46:33;22.40;69.10
1988;DHT22;12775;46.994;15.498;2023-04-28T12:49:00;22.40;69.10
1988;DHT22;12775;46.994;15.498;2023-04-28T12:51:26;22.40;68.80
1988;DHT22;12775;46.994;15.498;2023-04-28T12:53:54;22.40;67.90
1988;DHT22;12775;46.994;15.498;2023-04-28T12:56:20;22.40;67.90
1988;DHT22;12775;46.994;15.498;2023-04-28T12:58:48;22.40;68.20
1988;DHT22;12775;46.994;15.498;2023-04-28T13:01:16;22.40;68.70
1988;DHT22;12775;46.994;15.498;2023-04-28T13:03:44;22.50;68.80
1988;DHT22;12775;46.994;15.498;2023-04-28T13:06:11;22.50;66.00
1988;DHT22;12775;46.994;15.498;2023-04-28T13:08:38;22.50;68.10
1988;DHT22;12775;46.994;15.498;2023-04-28T13:11:06;22.50;68.00
1988;DHT22;12775;46.994;15.498;2023-04-28T13:13:33;22.50;68.60
1988;DHT22;12775;46.994;15.498;2023-04-28T13:16:01;22.50;66.30
1988;DHT22;12775;46.994;15.498;2023-04-28T13:18:29;22.60;70.10
1988;DHT22;12775;46.994;15.498;2023-04-28T13:20:56;22.60;69.90
1988;DHT22;12775;46.994;15.498;2023-04-28T13:23:24;22.60;69.30
1988;DHT22;12775;46.994;15.498;2023-04-28T13:25:51;22.60;66.10
1988;DHT22;12775;46.994;15.498;2023-04-28T13:28:18;22.50;64.70
1988;DHT22;12775;46.994;15.498;2023-04-28T13:30:46;22.60;64.10
1988;DHT22;12775;46.994;15.498;2023-04-28T13:33:13;22.50;68.80
1988;DHT22;12775;46.994;15.498;2023-04-28T13:35:41;22.50;65.80
1988;DHT22;12775;46.994;15.498;2023-04-28T13:38:09;22.30;62.60
1988;DHT22;12775;46.994;15.498;2023-04-28T13:40:36;22.20;68.20
1988;DHT22;12775;46.994;15.498;2023-04-28T13:43:03;22.10;67.60
1988;DHT22;12775;46.994;15.498;2023-04-28T13:45:32;22.10;64.10
1988;DHT22;12775;46.994;15.498;2023-04-28T13:47:59;21.90;64.40
1988;DHT22;12775;46.994;15.498;2023-04-28T13:50:27;21.90;64.30
1988;DHT22;12775;46.994;15.498;2023-04-28T13:52:53;21.90;64.30
1988;DHT22;12775;46.994;15.498;2023-04-28T13:55:20;21.70;62.70
1988;DHT22;12775;46.994;15.498;2023-04-28T13:57:48;21.70;69.20
1988;DHT22;12775;46.994;15.498;2023-04-28T14:00:17;21.70;68.10
1988;DHT22;12775;46.994;15.498;2023-04-28T14:02:45;21.70;69.90
1988;DHT22;12775;46.994;15.498;2023-04-28T14:05:12;21.70;70.60
1988;DHT22;12775;46.994;15.498;2023-04-28T14:07:40;21.70;70.90
1988;DHT22;12775;46.994;15.498;2023-04-28T14:10:08;21.80;72.60
1988;DHT22;12775;46.994;15.498;2023-04-28T14:12:37;21.70;71.00
1988;DHT22;12775;46.994;15.498;2023-04-28T14:15:07;21.70;71.10
1988;DHT22;12775;46.994;15.498;2023-04-28T14:17:34;21.70;71.40
1988;DHT22;12775;46.994;15.498;2023-04-28T14:20:02;21.60;72.10
1988;DHT22;12775;46.994;15.498;2023-04-28T14:22:29;21.60;72.20
1988;DHT22;12775;46.994;15.498;2023-04-28T14:24:56;21.50;72.10
1988;DHT22;12775;46.994;15.498;2023-04-28T14:27:23;21.50;71.60
1988;DHT22;12775;46.994;15.498;2023-04-28T14:29:49;21.30;71.50
1988;DHT22;12775;46.994;15.498;2023-04-28T14:32:16;21.20;72.70
1988;DHT22;12775;46.994;15.498;2023-04-28T14:34:42;21.10;73.00
1988;DHT22;12775;46.994;15.498;2023-04-28T14:37:10;21.00;72.00
1988;DHT22;12775;46.994;15.498;2023-04-28T14:39:36;21.00;71.90
1988;DHT22;12775;46.994;15.498;2023-04-28T14:42:03;21.00;72.70
1988;DHT22;12775;46.994;15.498;2023-04-28T14:44:30;21.00;72.50
1988;DHT22;12775;46.994;15.498;2023-04-28T14:46:56;20.90;72.40
1988;DHT22;12775;46.994;15.498;2023-04-28T14:49:23;20.80;72.60
1988;DHT22;12775;46.994;15.498;2023-04-28T14:51:49;20.70;71.40
1988;DHT22;12775;46.994;15.498;2023-04-28T14:54:17;20.50;72.40
1988;DHT22;12775;46.994;15.498;2023-04-28T14:56:44;20.40;73.10
1988;DHT22;12775;46.994;15.498;2023-04-28T14:59:11;20.40;73.10
1988;DHT22;12775;46.994;15.498;2023-04-28T15:01:38;20.20;73.50
1988;DHT22;12775;46.994;15.498;2023-04-28T15:04:06;20.10;73.70
1988;DHT22;12775;46.994;15.498;2023-04-28T15:06:34;20.00;74.40
1988;DHT22;12775;46.994;15.498;2023-04-28T15:09:00;19.90;74.30
1988;DHT22;12775;46.994;15.498;2023-04-28T15:11:28;19.70;74.70
1988;DHT22;12775;46.994;15.498;2023-04-28T15:13:55;19.70;76.20
1988;DHT22;12775;46.994;15.498;2023-04-28T15:16:22;19.60;76.40
1988;DHT22;12775;46.994;15.498;2023-04-28T15:18:50;19.60;77.60
1988;DHT22;12775;46.994;15.498;2023-04-28T15:21:17;19.40;79.40
1988;DHT22;12775;46.994;15.498;2023-04-28T15:23:45;19.40;78.10
1988;DHT22;12775;46.994;15.498;2023-04-28T15:26:12;19.30;77.20
1988;DHT22;12775;46.994;15.498;2023-04-28T15:28:39;19.20;78.00
1988;DHT22;12775;46.994;15.498;2023-04-28T15:31:07;19.20;78.70
1988;DHT22;12775;46.994;15.498;2023-04-28T15:33:34;19.20;78.70
1988;DHT22;12775;46.994;15.498;2023-04-28T15:36:02;19.10;78.80
1988;DHT22;12775;46.994;15.498;2023-04-28T15:38:29;19.10;78.10
1988;DHT22;12775;46.994;15.498;2023-04-28T15:40:57;19.00;79.60
1988;DHT22;12775;46.994;15.498;2023-04-28T15:43:24;19.10;79.10
1988;DHT22;12775;46.994;15.498;2023-04-28T15:45:50;19.00;78.90
1988;DHT22;12775;46.994;15.498;2023-04-28T15:48:18;19.00;79.20